Weather at Charles de Gaulle International Airport

Public forecast

Using degrees Celsius for public forecast. Weather courtesy of forecast.io.

Current aviation weather report (METAR) for Charles de Gaulle International Airport

2024/02/25 05:30 (retrieved 23 minutes ago)

LFPG 250530Z 19011KT 9999 OVC007 05/04 Q1001 NOSIG

Closest aviation forecast (TAF) to Charles de Gaulle International Airport

Forecast is more than 12 hours old.

Closest forecast is Évreux-Fauville (BA 105) Air Base, 52.4 nm (97.0 km) W.

2024/02/24 15:53 (retrieved 14 hours ago)

TAF LFOE 241545Z 2415/2515 CNL